createdAt,value
2018-02-11T00:01:46.501Z,4.60
2018-02-11T00:04:13.772Z,4.60
2018-02-11T00:06:41.398Z,4.80
2018-02-11T00:09:08.711Z,4.60
2018-02-11T00:11:36.368Z,4.13
2018-02-11T00:14:03.717Z,4.40
2018-02-11T00:16:31.469Z,4.13
2018-02-11T00:18:58.704Z,4.07
2018-02-11T00:21:26.146Z,4.10
2018-02-11T00:23:53.628Z,4.50
2018-02-11T00:26:21.217Z,4.67
2018-02-11T00:28:48.671Z,4.23
2018-02-11T00:31:16.610Z,4.50
2018-02-11T00:33:43.912Z,4.67
2018-02-11T00:36:11.604Z,4.60
2018-02-11T00:38:38.799Z,4.57
2018-02-11T00:41:06.519Z,4.17
2018-02-11T00:43:33.739Z,4.27
2018-02-11T00:46:01.327Z,4.00
2018-02-11T00:48:28.720Z,3.97
2018-02-11T00:50:56.483Z,4.00
2018-02-11T00:53:23.730Z,3.83
2018-02-11T00:55:51.439Z,3.90
2018-02-11T00:58:18.742Z,4.13
2018-02-11T01:00:46.468Z,4.30
2018-02-11T01:03:13.683Z,4.23
2018-02-11T01:05:41.465Z,3.90
2018-02-11T01:08:08.726Z,4.17
2018-02-11T01:10:36.484Z,3.77
2018-02-11T01:13:03.703Z,4.20
2018-02-11T01:15:31.517Z,4.27
2018-02-11T01:17:58.772Z,3.77
2018-02-11T01:20:26.517Z,4.00
2018-02-11T01:22:53.745Z,3.80
2018-02-11T01:25:21.465Z,3.90
2018-02-11T01:27:48.679Z,3.30
2018-02-11T01:30:16.223Z,3.33
2018-02-11T01:32:43.651Z,3.35
2018-02-11T01:35:11.407Z,3.70
2018-02-11T01:37:38.682Z,3.77
2018-02-11T01:40:07.358Z,3.50
2018-02-11T01:42:34.708Z,3.43
2018-02-11T01:45:02.476Z,3.47
2018-02-11T01:47:29.723Z,3.40
2018-02-11T01:49:57.490Z,3.50
2018-02-11T01:52:24.785Z,3.30
2018-02-11T01:54:52.652Z,3.00
2018-02-11T01:57:20.488Z,3.30
2018-02-11T01:59:47.759Z,3.67
2018-02-11T02:02:15.540Z,3.00
2018-02-11T02:04:42.745Z,3.23
2018-02-11T02:07:10.632Z,3.40
2018-02-11T02:09:38.401Z,3.23
2018-02-11T02:12:05.764Z,3.53
2018-02-11T02:14:33.589Z,2.93
2018-02-11T02:17:00.774Z,3.17
2018-02-11T02:19:28.388Z,3.40
2018-02-11T02:21:55.760Z,3.03
2018-02-11T02:24:23.521Z,3.40
2018-02-11T02:26:50.748Z,2.70
2018-02-11T02:29:18.383Z,3.10
2018-02-11T02:31:45.708Z,3.10
2018-02-11T02:34:13.378Z,3.20
2018-02-11T02:36:40.722Z,2.80
2018-02-11T02:39:08.403Z,3.07
2018-02-11T02:41:35.718Z,3.57
2018-02-11T02:44:03.518Z,3.03
2018-02-11T02:46:30.731Z,3.37
2018-02-11T02:48:58.511Z,3.30
2018-02-11T02:51:25.744Z,3.07
2018-02-11T02:53:53.548Z,3.17
2018-02-11T02:56:20.764Z,2.67
2018-02-11T02:58:48.490Z,3.13
2018-02-11T03:01:15.718Z,2.67
2018-02-11T03:03:43.512Z,2.80
2018-02-11T03:06:10.787Z,2.83
2018-02-11T03:08:38.484Z,3.07
2018-02-11T03:11:05.746Z,2.83
2018-02-11T03:13:33.504Z,2.80
2018-02-11T03:16:00.694Z,2.97
2018-02-11T03:18:28.268Z,2.80
2018-02-11T03:20:55.685Z,2.90
2018-02-11T03:23:23.202Z,2.20
2018-02-11T03:28:17.738Z,2.50
2018-02-11T03:30:45.665Z,2.80
2018-02-11T03:33:13.251Z,2.70
2018-02-11T03:35:40.721Z,3.10
2018-02-11T03:38:08.366Z,2.73
2018-02-11T03:40:35.743Z,2.70
2018-02-11T03:47:53.032Z,2.50
2018-02-11T03:52:48.402Z,2.87
2018-02-11T03:55:15.726Z,2.50
2018-02-11T03:57:43.397Z,2.17
2018-02-11T04:00:10.793Z,2.57
2018-02-11T04:02:38.674Z,2.30
2018-02-11T04:05:06.513Z,2.20
2018-02-11T04:07:33.746Z,2.20
2018-02-11T04:10:01.532Z,2.40
2018-02-11T04:12:28.739Z,2.33
2018-02-11T04:14:56.433Z,2.63
2018-02-11T04:17:23.695Z,2.30
2018-02-11T04:19:50.951Z,2.20
2018-02-11T04:24:45.835Z,2.60
2018-02-11T04:27:13.650Z,2.20
2018-02-11T04:29:40.882Z,2.40
2018-02-11T04:32:08.588Z,2.37
2018-02-11T04:34:35.716Z,1.97
2018-02-11T04:37:03.481Z,2.10
2018-02-11T04:39:30.717Z,1.90
2018-02-11T04:41:58.498Z,2.33
2018-02-11T04:44:25.686Z,1.90
2018-02-11T04:46:53.431Z,1.70
2018-02-11T04:49:20.703Z,2.27
2018-02-11T04:51:48.440Z,2.20
2018-02-11T04:54:15.731Z,2.00
2018-02-11T04:56:43.461Z,1.90
2018-02-11T04:59:10.782Z,1.90
2018-02-11T05:01:38.512Z,1.90
2018-02-11T05:04:05.756Z,1.87
2018-02-11T05:06:33.520Z,1.80
2018-02-11T05:09:00.759Z,1.80
2018-02-11T05:11:28.510Z,1.97
2018-02-11T05:13:55.719Z,2.00
2018-02-11T05:16:23.429Z,1.33
2018-02-11T05:18:50.751Z,1.90
2018-02-11T05:21:18.623Z,2.20
2018-02-11T05:23:45.926Z,3.37
2018-02-11T05:28:40.740Z,4.47
2018-02-11T05:31:08.498Z,3.53
2018-02-11T05:33:35.751Z,4.23
2018-02-11T05:36:03.506Z,3.43
2018-02-11T05:38:30.728Z,3.20
2018-02-11T05:40:58.449Z,2.83
2018-02-11T05:43:25.712Z,4.33
2018-02-11T05:45:53.470Z,6.20
2018-02-11T05:48:20.732Z,6.60
2018-02-11T05:50:48.399Z,6.30
2018-02-11T05:53:15.708Z,5.47
2018-02-11T05:55:43.504Z,4.90
2018-02-11T05:58:10.760Z,5.33
2018-02-11T06:00:38.506Z,5.10
2018-02-11T06:03:05.712Z,4.53
2018-02-11T06:05:33.353Z,4.87
2018-02-11T06:08:00.759Z,3.90
2018-02-11T06:10:28.575Z,4.07
2018-02-11T06:12:55.739Z,3.67
2018-02-11T06:15:23.498Z,3.37
2018-02-11T06:17:50.711Z,3.33
2018-02-11T06:20:18.542Z,3.40
2018-02-11T06:22:45.723Z,3.20
2018-02-11T06:25:13.341Z,3.03
2018-02-11T06:27:40.746Z,2.90
2018-02-11T06:30:08.301Z,2.57
2018-02-11T06:32:35.746Z,2.53
2018-02-11T06:35:03.535Z,3.03
2018-02-11T06:37:30.789Z,2.60
2018-02-11T06:39:58.624Z,2.97
2018-02-11T06:42:25.940Z,2.63
2018-02-11T06:47:21.390Z,2.50
2018-02-11T06:49:48.744Z,2.20
2018-02-11T06:52:16.643Z,2.53
2018-02-11T06:54:44.191Z,2.80
2018-02-11T06:57:11.709Z,2.40
2018-02-11T06:59:39.382Z,2.40
2018-02-11T07:02:06.779Z,3.47
2018-02-11T07:04:34.581Z,7.50
2018-02-11T07:07:01.807Z,11.07
2018-02-11T07:09:29.673Z,10.50
2018-02-11T07:11:57.333Z,9.50
2018-02-11T07:14:24.754Z,8.40
2018-02-11T07:16:52.393Z,7.27
2018-02-11T07:19:19.807Z,7.23
2018-02-11T07:21:47.704Z,6.20
2018-02-11T07:24:15.409Z,5.80
2018-02-11T07:26:42.763Z,5.83
2018-02-11T07:29:10.700Z,9.77
2018-02-11T07:31:38.499Z,12.03
